Airport View

Enter AWOS ICAO identifier for current METAR.

ex. KFNL

KGCN 210054Z 24008G15KT 10SM CLR 19/M14 A3006 RMK AO2 SLP120 T01891139

21 Sep 2019 01:17

Phone: 928-638-0672

Other Area AWOS: KCMR - KFLG - KKNB - KPGA

TAF KGCN 202320Z 2100/2124 23010G17KT P6SM SKC FM210300 VRB05KT P6SM SKC FM211500 23010G15KT P6SM SKC